Time;durP1;ratioP1;P1;durP2;ratioP2;P2;SDS_P1;SDS_P2;PMS_P1;PMS_P2;Temp;Humidity;BMP_temperature;BMP_pressure;BME280_temperature;BME280_humidity;BME280_pressure;Samples;Min_cycle;Max_cycle;Signal;HPM_P1;HPM_P2
2022/06/22 00:00:14;;;;;;;12.27;9.57;;;;;;;;;;5132891;27;20397;-76
2022/06/22 00:02:42;;;;;;;9.77;8.83;;;;;;;;;;5123932;27;20197;-76
2022/06/22 00:05:16;;;;;;;11.93;8.80;;;;;;;;;;5134400;27;20319;-76
2022/06/22 00:07:46;;;;;;;11.00;9.43;;;;;;;;;;5138409;27;20189;-76
2022/06/22 00:10:17;;;;;;;9.97;8.77;;;;;;;;;;5134299;27;20201;-76
2022/06/22 00:12:48;;;;;;;11.30;9.10;;;;;;;;;;5129635;27;20680;-75
2022/06/22 00:15:21;;;;;;;10.47;9.37;;;;;;;;;;5133196;27;20189;-76
2022/06/22 00:17:49;;;;;;;11.07;9.07;;;;;;;;;;5137224;27;20280;-76
2022/06/22 00:20:21;;;;;;;12.37;9.10;;;;;;;;;;5137815;27;20229;-76
2022/06/22 00:22:51;;;;;;;10.20;8.93;;;;;;;;;;5144342;27;20563;-76
2022/06/22 00:25:23;;;;;;;13.07;9.73;;;;;;;;;;5151848;27;20273;-75
2022/06/22 00:27:50;;;;;;;13.93;9.37;;;;;;;;;;5135952;27;20348;-76
2022/06/22 00:30:27;;;;;;;11.00;9.27;;;;;;;;;;5133308;27;20761;-76
2022/06/22 00:33:13;;;;;;;11.13;9.70;;;;;;;;;;5132584;27;20652;-76
2022/06/22 00:35:49;;;;;;;11.03;9.67;;;;;;;;;;5133278;27;20197;-75
2022/06/22 00:38:19;;;;;;;11.00;9.13;;;;;;;;;;5137045;27;20618;-75
2022/06/22 00:40:48;;;;;;;10.83;9.63;;;;;;;;;;5148786;27;20284;-76
2022/06/22 00:43:16;;;;;;;11.10;9.80;;;;;;;;;;5133698;27;20287;-76
2022/06/22 00:45:44;;;;;;;11.93;10.23;;;;;;;;;;5133370;27;20268;-76
2022/06/22 00:48:16;;;;;;;12.93;9.37;;;;;;;;;;5133117;27;20284;-76
2022/06/22 00:50:45;;;;;;;10.73;9.63;;;;;;;;;;5133848;27;20201;-76
2022/06/22 00:53:14;;;;;;;13.70;10.57;;;;;;;;;;5142006;27;20192;-75
2022/06/22 00:55:44;;;;;;;14.30;10.30;;;;;;;;;;5133977;27;20205;-76
2022/06/22 00:58:15;;;;;;;15.37;10.17;;;;;;;;;;5134028;27;20232;-76
2022/06/22 01:00:43;;;;;;;12.40;10.40;;;;;;;;;;5133214;27;20678;-76
2022/06/22 01:03:17;;;;;;;12.87;9.87;;;;;;;;;;5133573;27;20288;-75
2022/06/22 01:05:50;;;;;;;11.43;9.60;;;;;;;;;;5144296;27;20308;-76
2022/06/22 01:08:21;;;;;;;13.00;9.60;;;;;;;;;;5133170;27;20280;-75
2022/06/22 01:10:52;;;;;;;11.43;9.57;;;;;;;;;;5132943;27;20593;-76
2022/06/22 01:13:24;;;;;;;11.60;9.70;;;;;;;;;;5135821;27;20284;-76
2022/06/22 01:15:56;;;;;;;11.57;9.97;;;;;;;;;;5132698;27;20193;-75
2022/06/22 01:18:26;;;;;;;16.63;10.07;;;;;;;;;;5141740;27;20287;-75
2022/06/22 01:20:58;;;;;;;10.87;9.43;;;;;;;;;;5150552;27;20189;-75
2022/06/22 01:23:44;;;;;;;10.90;9.80;;;;;;;;;;5133983;27;20224;-75
2022/06/22 01:26:21;;;;;;;13.30;10.50;;;;;;;;;;5132876;27;21967;-75
2022/06/22 01:28:53;;;;;;;11.50;10.30;;;;;;;;;;5132646;27;20279;-76
2022/06/22 01:31:21;;;;;;;11.77;10.13;;;;;;;;;;5123500;27;20288;-76
2022/06/22 01:33:50;;;;;;;12.73;10.13;;;;;;;;;;5133011;27;20235;-75
2022/06/22 01:36:18;;;;;;;12.60;10.20;;;;;;;;;;5132689;27;20242;-76
2022/06/22 01:38:45;;;;;;;12.40;11.07;;;;;;;;;;5128673;27;20222;-75
2022/06/22 01:41:20;;;;;;;14.93;10.57;;;;;;;;;;5133953;27;20595;-75
2022/06/22 01:43:50;;;;;;;12.50;10.67;;;;;;;;;;5132575;27;20239;-75
2022/06/22 01:46:21;;;;;;;12.10;10.73;;;;;;;;;;5126408;27;20295;-75
2022/06/22 01:48:52;;;;;;;11.67;10.40;;;;;;;;;;5133511;27;20228;-75
2022/06/22 01:51:24;;;;;;;13.70;10.90;;;;;;;;;;5133086;27;20296;-75
2022/06/22 01:53:54;;;;;;;14.57;10.60;;;;;;;;;;5132648;27;20731;-76
2022/06/22 01:56:27;;;;;;;12.80;10.97;;;;;;;;;;5133126;27;20232;-76
2022/06/22 01:58:59;;;;;;;12.40;11.10;;;;;;;;;;5150386;27;20247;-76
2022/06/22 02:01:30;;;;;;;12.23;10.80;;;;;;;;;;5132362;27;20232;-76
2022/06/22 02:04:17;;;;;;;13.40;10.63;;;;;;;;;;5136909;27;20230;-76
2022/06/22 02:09:36;;;;;;;12.03;10.73;;;;;;;;;;5131723;27;20278;-75
2022/06/22 02:12:20;;;;;;;12.07;10.93;;;;;;;;;;5131941;27;20283;-76
2022/06/22 02:14:49;;;;;;;13.00;10.80;;;;;;;;;;5131784;27;20284;-76
2022/06/22 02:17:20;;;;;;;14.73;11.10;;;;;;;;;;5131676;27;20589;-76
2022/06/22 02:20:11;;;;;;;11.87;10.67;;;;;;;;;;5131478;27;20283;-75
2022/06/22 02:22:38;;;;;;;13.87;10.70;;;;;;;;;;5131022;27;20276;-75
2022/06/22 02:25:07;;;;;;;12.33;11.03;;;;;;;;;;5142701;27;20216;-76
2022/06/22 02:27:35;;;;;;;12.17;10.47;;;;;;;;;;5136368;27;20201;-75
2022/06/22 02:30:02;;;;;;;12.73;10.80;;;;;;;;;;5133740;27;21173;-75
2022/06/22 02:32:33;;;;;;;14.73;10.77;;;;;;;;;;5135874;27;20261;-76
2022/06/22 02:35:00;;;;;;;12.43;10.50;;;;;;;;;;5130765;27;20228;-75
2022/06/22 02:37:40;;;;;;;12.17;10.20;;;;;;;;;;5132294;27;20284;-75
2022/06/22 02:40:10;;;;;;;12.97;10.50;;;;;;;;;;5138716;27;20200;-75
2022/06/22 02:45:23;;;;;;;12.80;10.57;;;;;;;;;;5131813;27;20664;-75
2022/06/22 02:47:54;;;;;;;15.47;10.47;;;;;;;;;;5131741;28;20287;-75
2022/06/22 02:50:24;;;;;;;11.27;10.20;;;;;;;;;;5148674;27;20295;-76
2022/06/22 02:52:54;;;;;;;12.00;10.70;;;;;;;;;;5131544;27;20292;-75
2022/06/22 02:55:23;;;;;;;12.00;10.73;;;;;;;;;;5130828;28;20635;-75
2022/06/22 02:57:56;;;;;;;10.83;9.83;;;;;;;;;;5134238;27;20229;-75
2022/06/22 03:00:25;;;;;;;11.10;10.00;;;;;;;;;;5133862;27;20287;-75
2022/06/22 03:02:55;;;;;;;10.93;9.77;;;;;;;;;;5136291;27;20300;-75
2022/06/22 03:05:24;;;;;;;10.43;9.43;;;;;;;;;;5134242;27;20390;-75
2022/06/22 03:07:52;;;;;;;11.17;9.97;;;;;;;;;;5115606;27;20204;-75
2022/06/22 03:10:24;;;;;;;12.13;9.83;;;;;;;;;;5125097;27;20292;-76
2022/06/22 03:12:51;;;;;;;9.90;9.00;;;;;;;;;;5115301;28;20288;-75
2022/06/22 03:15:21;;;;;;;10.60;9.50;;;;;;;;;;5114605;28;20285;-76
2022/06/22 03:17:49;;;;;;;10.60;8.97;;;;;;;;;;5115846;28;20313;-76
2022/06/22 03:20:20;;;;;;;10.17;8.70;;;;;;;;;;5132566;27;20644;-75
2022/06/22 03:22:48;;;;;;;10.37;8.90;;;;;;;;;;5135565;27;20233;-75
2022/06/22 03:25:19;;;;;;;10.23;8.50;;;;;;;;;;5133401;27;20284;-75
2022/06/22 03:27:48;;;;;;;11.53;8.40;;;;;;;;;;5127915;27;20225;-76
2022/06/22 03:30:18;;;;;;;9.27;8.20;;;;;;;;;;5124106;27;20289;-76
2022/06/22 03:32:47;;;;;;;10.43;8.70;;;;;;;;;;5114960;28;20229;-76
2022/06/22 03:35:17;;;;;;;9.40;8.50;;;;;;;;;;5116529;27;20232;-76
2022/06/22 03:37:48;;;;;;;12.13;8.67;;;;;;;;;;5115699;27;20628;-75
2022/06/22 03:40:16;;;;;;;10.80;8.30;;;;;;;;;;5125440;27;20234;-76
2022/06/22 03:42:47;;;;;;;11.27;7.80;;;;;;;;;;5118993;27;20280;-76
2022/06/22 03:45:16;;;;;;;9.87;7.87;;;;;;;;;;5115312;27;20662;-75
2022/06/22 03:47:46;;;;;;;8.97;7.90;;;;;;;;;;5114792;28;20284;-76
2022/06/22 03:50:17;;;;;;;9.57;8.53;;;;;;;;;;5126925;27;20297;-75
2022/06/22 03:52:49;;;;;;;11.13;8.40;;;;;;;;;;5135638;27;20296;-76
2022/06/22 03:55:18;;;;;;;9.70;8.27;;;;;;;;;;5134608;27;20284;-76
2022/06/22 03:57:49;;;;;;;10.20;8.90;;;;;;;;;;5126819;27;20197;-76
2022/06/22 04:00:17;;;;;;;9.13;8.23;;;;;;;;;;5095842;28;20217;-75
2022/06/22 04:02:44;;;;;;;11.83;8.50;;;;;;;;;;5122628;27;20233;-76
2022/06/22 04:05:15;;;;;;;10.33;8.17;;;;;;;;;;5115707;27;20579;-75
2022/06/22 04:07:43;;;;;;;10.10;8.60;;;;;;;;;;5117954;27;20197;-75
2022/06/22 04:10:21;;;;;;;10.47;9.37;;;;;;;;;;5112821;27;20687;-76
2022/06/22 04:12:49;;;;;;;11.73;9.30;;;;;;;;;;5113591;28;20289;-75
2022/06/22 04:15:21;;;;;;;10.87;9.03;;;;;;;;;;5113878;27;20233;-76
2022/06/22 04:17:50;;;;;;;13.97;9.17;;;;;;;;;;5114076;28;20288;-75
2022/06/22 04:20:19;;;;;;;10.23;9.20;;;;;;;;;;5113817;27;20665;-75
2022/06/22 04:22:48;;;;;;;10.20;9.23;;;;;;;;;;5114034;28;20229;-75
2022/06/22 04:25:19;;;;;;;10.57;9.33;;;;;;;;;;5117761;27;20277;-75
2022/06/22 04:27:48;;;;;;;10.20;9.17;;;;;;;;;;5115698;27;20290;-75
2022/06/22 04:30:18;;;;;;;10.70;9.53;;;;;;;;;;5121800;27;20562;-76
2022/06/22 04:32:47;;;;;;;11.90;9.87;;;;;;;;;;5113467;27;20721;-75
2022/06/22 04:35:24;;;;;;;10.17;9.07;;;;;;;;;;5126409;27;20229;-75
2022/06/22 04:37:54;;;;;;;11.13;9.40;;;;;;;;;;5113788;28;20240;-75
2022/06/22 04:40:24;;;;;;;10.30;9.20;;;;;;;;;;5112945;28;20648;-75
2022/06/22 04:42:54;;;;;;;10.50;9.50;;;;;;;;;;5118351;27;20280;-75
2022/06/22 04:45:26;;;;;;;10.77;9.10;;;;;;;;;;5114935;27;20312;-75
2022/06/22 04:47:53;;;;;;;10.13;9.00;;;;;;;;;;5113364;28;20218;-75
2022/06/22 04:50:21;;;;;;;10.27;9.20;;;;;;;;;;5113033;27;20757;-75
2022/06/22 04:52:50;;;;;;;10.87;9.13;;;;;;;;;;5112633;28;20284;-74
2022/06/22 04:55:19;;;;;;;11.20;8.97;;;;;;;;;;5115449;27;20664;-74
2022/06/22 04:57:49;;;;;;;12.50;8.93;;;;;;;;;;5133632;27;20194;-74
2022/06/22 05:00:19;;;;;;;9.97;8.63;;;;;;;;;;5112335;28;20288;-75
2022/06/22 05:02:47;;;;;;;11.57;8.67;;;;;;;;;;5099606;27;20225;-75
2022/06/22 05:05:18;;;;;;;10.57;8.13;;;;;;;;;;5117935;27;20312;-77
2022/06/22 05:07:49;;;;;;;10.50;8.57;;;;;;;;;;5113386;27;20312;-79
2022/06/22 05:10:20;;;;;;;12.27;8.63;;;;;;;;;;5113830;27;20252;-79
2022/06/22 05:12:50;;;;;;;12.30;8.60;;;;;;;;;;5128156;27;20276;-79
2022/06/22 05:15:23;;;;;;;8.95;8.05;;;;;;;;;;5131420;27;20288;-79
2022/06/22 05:17:51;;;;;;;10.68;8.55;;;;;;;;;;5119580;27;20228;-79
2022/06/22 05:20:23;;;;;;;9.48;7.80;;;;;;;;;;5117529;27;20284;-79
2022/06/22 05:22:51;;;;;;;8.43;7.63;;;;;;;;;;5115365;27;20224;-79
2022/06/22 05:25:19;;;;;;;9.60;7.88;;;;;;;;;;5113234;27;20881;-79
2022/06/22 05:27:52;;;;;;;8.52;7.53;;;;;;;;;;5114649;27;20329;-79
2022/06/22 05:30:19;;;;;;;9.85;7.47;;;;;;;;;;5115642;27;20581;-79
2022/06/22 05:32:49;;;;;;;8.02;7.22;;;;;;;;;;5130085;27;20620;-79
2022/06/22 05:35:17;;;;;;;7.60;6.90;;;;;;;;;;5113855;27;20360;-79
2022/06/22 05:37:47;;;;;;;7.65;6.90;;;;;;;;;;5113252;28;20225;-79
2022/06/22 05:40:15;;;;;;;7.70;6.82;;;;;;;;;;5118808;27;20254;-79
2022/06/22 05:42:42;;;;;;;7.80;7.07;;;;;;;;;;5133639;27;20292;-79
2022/06/22 05:45:15;;;;;;;8.18;6.82;;;;;;;;;;5122116;27;20252;-79
2022/06/22 05:47:44;;;;;;;11.02;7.10;;;;;;;;;;5122319;27;20217;-81
2022/06/22 05:50:14;;;;;;;8.52;7.30;;;;;;;;;;5130929;27;20197;-82
2022/06/22 05:52:44;;;;;;;9.88;7.60;;;;;;;;;;5133239;27;20328;-81
2022/06/22 05:55:14;;;;;;;11.38;7.30;;;;;;;;;;5133642;27;20243;-81
2022/06/22 05:57:45;;;;;;;8.10;6.88;;;;;;;;;;5133483;27;20229;-81
2022/06/22 06:00:16;;;;;;;11.30;6.72;;;;;;;;;;5120708;27;20288;-81
2022/06/22 06:02:45;;;;;;;8.35;6.72;;;;;;;;;;5121511;27;20236;-81
2022/06/22 06:05:18;;;;;;;6.90;6.20;;;;;;;;;;5133550;27;20244;-81
2022/06/22 06:07:46;;;;;;;8.98;6.57;;;;;;;;;;5132737;27;20255;-81
2022/06/22 06:10:20;;;;;;;6.40;5.70;;;;;;;;;;5133473;27;20193;-81
2022/06/22 06:12:52;;;;;;;7.18;6.28;;;;;;;;;;5113585;28;20208;-81
2022/06/22 06:15:20;;;;;;;7.97;5.72;;;;;;;;;;5112939;28;20225;-81
2022/06/22 06:17:50;;;;;;;6.35;5.75;;;;;;;;;;5119798;27;20284;-81
2022/06/22 06:20:20;;;;;;;6.28;5.68;;;;;;;;;;5116331;28;20222;-81
2022/06/22 06:22:49;;;;;;;6.18;5.57;;;;;;;;;;5112696;28;20241;-82
2022/06/22 06:28:07;;;;;;;5.72;5.07;;;;;;;;;;5113066;27;20232;-82
2022/06/22 06:30:39;;;;;;;8.45;5.28;;;;;;;;;;5132933;27;20240;-82
2022/06/22 06:33:11;;;;;;;4.63;4.20;;;;;;;;;;5129263;27;20237;-82
2022/06/22 06:35:41;;;;;;;4.65;4.18;;;;;;;;;;5091750;28;20237;-82
2022/06/22 06:38:15;;;;;;;5.28;3.83;;;;;;;;;;5091515;28;20198;-82
2022/06/22 06:40:45;;;;;;;6.30;4.43;;;;;;;;;;5107799;28;20284;-82
2022/06/22 06:43:30;;;;;;;6.05;4.10;;;;;;;;;;5132580;28;20286;-82
2022/06/22 06:46:00;;;;;;;6.30;4.25;;;;;;;;;;5110326;28;20217;-82
2022/06/22 06:48:28;;;;;;;6.60;3.80;;;;;;;;;;5112076;28;20316;-83
2022/06/22 06:50:57;;;;;;;4.88;3.80;;;;;;;;;;5124942;28;20235;-82
2022/06/22 06:53:29;;;;;;;6.43;4.03;;;;;;;;;;5132495;28;20197;-82
2022/06/22 06:56:00;;;;;;;4.53;3.60;;;;;;;;;;5132670;28;20313;-82
2022/06/22 06:58:32;;;;;;;5.95;3.90;;;;;;;;;;5132674;28;20284;-82
2022/06/22 07:01:01;;;;;;;4.85;3.78;;;;;;;;;;5132950;28;20221;-82
2022/06/22 07:03:30;;;;;;;8.27;4.10;;;;;;;;;;5130646;28;20193;-82
2022/06/22 07:05:57;;;;;;;8.32;4.00;;;;;;;;;;5111821;28;20282;-82
2022/06/22 07:08:27;;;;;;;6.50;3.75;;;;;;;;;;5111324;28;20309;-82
2022/06/22 07:10:57;;;;;;;6.80;3.60;;;;;;;;;;5112737;28;20275;-82
2022/06/22 07:13:27;;;;;;;7.18;4.10;;;;;;;;;;5111750;28;20285;-82
2022/06/22 07:15:57;;;;;;;7.78;4.00;;;;;;;;;;5111541;28;20285;-82
2022/06/22 07:18:28;;;;;;;5.30;3.85;;;;;;;;;;5110620;28;20297;-82
2022/06/22 07:20:57;;;;;;;4.72;3.85;;;;;;;;;;5111365;28;20276;-81
2022/06/22 07:23:27;;;;;;;6.40;3.83;;;;;;;;;;5111225;28;20739;-81
2022/06/22 07:25:57;;;;;;;5.07;3.92;;;;;;;;;;5111772;28;20237;-81
2022/06/22 07:28:26;;;;;;;5.40;4.10;;;;;;;;;;5121510;28;20315;-81
2022/06/22 07:30:55;;;;;;;5.75;3.90;;;;;;;;;;5131861;28;20197;-82
2022/06/22 07:33:26;;;;;;;10.70;4.45;;;;;;;;;;5114898;28;20394;-82
2022/06/22 07:35:58;;;;;;;5.82;4.03;;;;;;;;;;5111123;28;20287;-82
2022/06/22 07:38:28;;;;;;;5.50;3.90;;;;;;;;;;5110951;28;20647;-82
2022/06/22 07:43:42;;;;;;;6.53;4.10;;;;;;;;;;5091270;28;20202;-82
2022/06/22 07:46:11;;;;;;;6.00;4.30;;;;;;;;;;5107500;28;20635;-82
2022/06/22 07:48:41;;;;;;;7.07;4.00;;;;;;;;;;5114595;27;20304;-82
2022/06/22 07:51:14;;;;;;;6.97;3.97;;;;;;;;;;5114663;28;20241;-82
2022/06/22 07:53:46;;;;;;;7.80;4.60;;;;;;;;;;5114816;28;20285;-82
2022/06/22 07:56:15;;;;;;;6.10;3.92;;;;;;;;;;5115075;28;20225;-82
2022/06/22 07:58:45;;;;;;;5.93;4.10;;;;;;;;;;5114153;28;20206;-82
2022/06/22 08:01:14;;;;;;;8.10;4.10;;;;;;;;;;5114790;28;20661;-83
2022/06/22 08:03:43;;;;;;;4.30;3.72;;;;;;;;;;5114469;28;20194;-83
2022/06/22 08:06:15;;;;;;;6.43;3.50;;;;;;;;;;5129983;27;20290;-83
2022/06/22 08:08:44;;;;;;;5.63;3.50;;;;;;;;;;5133874;27;20311;-83
2022/06/22 08:11:16;;;;;;;6.88;4.03;;;;;;;;;;5116887;28;20228;-83
2022/06/22 08:13:45;;;;;;;7.38;4.43;;;;;;;;;;5123917;27;20228;-83
2022/06/22 08:16:15;;;;;;;5.82;4.00;;;;;;;;;;5116318;28;20297;-83
2022/06/22 08:18:42;;;;;;;4.53;3.80;;;;;;;;;;5103349;27;20277;-84
2022/06/22 08:21:11;;;;;;;6.30;3.90;;;;;;;;;;5095560;28;20685;-83
2022/06/22 08:23:40;;;;;;;4.75;4.05;;;;;;;;;;5111987;27;20274;-84
2022/06/22 08:26:12;;;;;;;7.55;4.22;;;;;;;;;;5116465;27;20229;-84
2022/06/22 08:28:40;;;;;;;5.03;4.32;;;;;;;;;;5120446;27;20358;-84
2022/06/22 08:31:08;;;;;;;5.32;4.00;;;;;;;;;;5119121;27;20200;-84
2022/06/22 08:33:37;;;;;;;5.82;4.10;;;;;;;;;;5121588;27;20261;-83
2022/06/22 08:36:08;;;;;;;7.45;4.40;;;;;;;;;;5117051;27;20280;-83
2022/06/22 08:38:38;;;;;;;6.28;4.13;;;;;;;;;;5130338;27;20229;-83
2022/06/22 08:41:08;;;;;;;7.63;4.30;;;;;;;;;;5115866;28;20241;-83
2022/06/22 08:43:39;;;;;;;5.63;4.40;;;;;;;;;;5116345;28;20296;-83
2022/06/22 08:46:27;;;;;;;7.28;4.50;;;;;;;;;;5116100;27;20281;-83
2022/06/22 08:49:03;;;;;;;7.35;5.00;;;;;;;;;;5111577;27;20296;-83
2022/06/22 08:51:41;;;;;;;7.53;4.65;;;;;;;;;;5119281;27;20228;-83
2022/06/22 08:54:15;;;;;;;5.63;4.25;;;;;;;;;;5113957;27;20255;-83
2022/06/22 08:56:49;;;;;;;5.22;4.38;;;;;;;;;;5123954;27;20220;-83
2022/06/22 08:59:29;;;;;;;5.32;3.60;;;;;;;;;;5117136;27;20225;-83
2022/06/22 09:02:03;;;;;;;6.50;4.22;;;;;;;;;;5116267;27;20221;-84
2022/06/22 09:04:37;;;;;;;5.97;4.13;;;;;;;;;;5130807;27;20236;-83
2022/06/22 09:07:14;;;;;;;4.90;4.25;;;;;;;;;;5134622;27;20228;-83
2022/06/22 09:10:00;;;;;;;6.22;4.38;;;;;;;;;;5128455;27;20719;-83
2022/06/22 09:12:35;;;;;;;6.95;3.90;;;;;;;;;;5134590;27;20228;-83
2022/06/22 09:15:11;;;;;;;6.82;4.13;;;;;;;;;;5134250;27;20240;-82
2022/06/22 09:17:48;;;;;;;5.82;4.57;;;;;;;;;;5128570;27;20216;-82
2022/06/22 09:20:23;;;;;;;6.38;3.53;;;;;;;;;;5134390;27;20573;-82
2022/06/22 09:22:55;;;;;;;8.88;4.43;;;;;;;;;;5134413;27;20228;-83
2022/06/22 09:25:27;;;;;;;10.35;4.18;;;;;;;;;;5134279;27;20197;-82
2022/06/22 09:27:58;;;;;;;7.75;3.97;;;;;;;;;;5134181;27;20804;-82
2022/06/22 09:30:34;;;;;;;5.93;3.40;;;;;;;;;;5134099;27;20319;-82
2022/06/22 09:33:17;;;;;;;4.18;3.22;;;;;;;;;;5132834;27;20224;-83
2022/06/22 09:36:08;;;;;;;5.28;3.22;;;;;;;;;;5132587;27;20651;-82
2022/06/22 09:38:48;;;;;;;5.00;3.78;;;;;;;;;;5108868;27;20308;-83
2022/06/22 09:41:21;;;;;;;3.45;3.10;;;;;;;;;;5133219;27;20220;-83
2022/06/22 09:44:03;;;;;;;3.92;2.80;;;;;;;;;;5126063;27;20273;-83
2022/06/22 09:46:45;;;;;;;3.88;2.90;;;;;;;;;;5131735;27;20664;-84
2022/06/22 09:49:30;;;;;;;4.38;3.20;;;;;;;;;;5132735;27;20312;-84
2022/06/22 09:52:03;;;;;;;3.22;2.80;;;;;;;;;;5133222;27;20238;-84
2022/06/22 09:57:53;;;;;;;3.13;2.83;;;;;;;;;;5129634;27;20219;-84
2022/06/22 10:00:21;;;;;;;3.50;2.85;;;;;;;;;;5128142;27;20228;-84
2022/06/22 10:03:02;;;;;;;3.22;2.92;;;;;;;;;;5132035;27;20724;-84
2022/06/22 10:05:37;;;;;;;4.72;2.45;;;;;;;;;;5132453;27;20707;-83
2022/06/22 10:08:11;;;;;;;3.10;2.55;;;;;;;;;;5114752;27;20634;-84
2022/06/22 10:10:43;;;;;;;3.40;2.75;;;;;;;;;;5121005;27;20284;-84
2022/06/22 10:13:27;;;;;;;3.75;2.72;;;;;;;;;;5111305;27;20289;-84
2022/06/22 10:16:03;;;;;;;3.10;2.60;;;;;;;;;;5123994;27;20729;-83
2022/06/22 10:18:39;;;;;;;3.42;3.13;;;;;;;;;;5123375;27;20288;-84
2022/06/22 10:21:10;;;;;;;3.90;3.00;;;;;;;;;;5108946;27;21053;-83
2022/06/22 10:23:43;;;;;;;3.92;3.50;;;;;;;;;;5124216;27;20634;-84
2022/06/22 10:26:26;;;;;;;3.83;3.20;;;;;;;;;;5104957;27;20255;-83
2022/06/22 10:29:11;;;;;;;4.25;3.40;;;;;;;;;;5127912;27;20782;-83
2022/06/22 10:31:43;;;;;;;4.18;3.78;;;;;;;;;;5048996;28;20282;-83
2022/06/22 10:34:19;;;;;;;8.57;4.20;;;;;;;;;;5029705;28;20673;-83
2022/06/22 10:36:53;;;;;;;4.50;4.10;;;;;;;;;;5048757;28;20286;-83
2022/06/22 10:39:31;;;;;;;4.70;4.20;;;;;;;;;;5045969;28;20365;-75
2022/06/22 10:45:09;;;;;;;4.95;4.07;;;;;;;;;;5049998;28;20692;-76
2022/06/22 10:47:51;;;;;;;5.53;4.68;;;;;;;;;;5048943;28;20261;-76
2022/06/22 10:50:28;;;;;;;5.10;4.60;;;;;;;;;;5045693;28;20219;-76
2022/06/22 10:53:04;;;;;;;8.07;5.00;;;;;;;;;;5047929;28;20235;-76
2022/06/22 10:55:46;;;;;;;5.60;5.00;;;;;;;;;;5045679;28;20421;-75
2022/06/22 10:58:20;;;;;;;5.95;4.85;;;;;;;;;;5045093;28;20299;-75
2022/06/22 11:00:51;;;;;;;5.43;4.75;;;;;;;;;;5047237;28;20278;-76
2022/06/22 11:03:37;;;;;;;5.95;5.07;;;;;;;;;;5046444;28;20208;-76
2022/06/22 11:06:28;;;;;;;6.35;5.60;;;;;;;;;;5047161;28;20721;-75
2022/06/22 11:09:03;;;;;;;6.95;5.20;;;;;;;;;;5079319;28;20233;-76
2022/06/22 11:11:36;;;;;;;7.45;5.55;;;;;;;;;;5112818;28;20216;-76
2022/06/22 11:14:18;;;;;;;5.78;5.18;;;;;;;;;;5111884;28;20286;-76
2022/06/22 11:16:52;;;;;;;5.90;5.30;;;;;;;;;;5109705;28;20259;-76
2022/06/22 11:19:27;;;;;;;6.90;4.90;;;;;;;;;;5111414;28;20304;-76
2022/06/22 11:22:04;;;;;;;9.25;5.55;;;;;;;;;;5111480;28;20299;-76
2022/06/22 11:24:49;;;;;;;8.02;5.50;;;;;;;;;;5113917;28;20193;-76
2022/06/22 11:32:58;;;;;;;7.97;5.72;;;;;;;;;;5115592;27;20603;-76
2022/06/22 11:35:36;;;;;;;6.35;5.68;;;;;;;;;;5115475;27;20193;-76
2022/06/22 11:38:09;;;;;;;9.75;4.93;;;;;;;;;;5116725;27;20283;-75
2022/06/22 11:40:45;;;;;;;7.70;5.18;;;;;;;;;;5126445;27;20310;-75
2022/06/22 11:43:39;;;;;;;7.93;5.53;;;;;;;;;;5117740;27;20629;-76
2022/06/22 11:46:10;;;;;;;9.27;5.45;;;;;;;;;;5052978;28;20310;-75
2022/06/22 11:49:04;;;;;;;6.07;4.90;;;;;;;;;;5056997;28;20309;-75
2022/06/22 11:51:37;;;;;;;6.65;4.75;;;;;;;;;;5050287;28;20250;-75
2022/06/22 11:54:22;;;;;;;5.00;4.40;;;;;;;;;;5048236;28;20303;-75
2022/06/22 11:57:01;;;;;;;6.50;4.78;;;;;;;;;;5058892;28;20249;-75
2022/06/22 11:59:36;;;;;;;6.68;5.10;;;;;;;;;;5051639;28;20212;-76
2022/06/22 12:02:19;;;;;;;6.22;4.93;;;;;;;;;;5054955;28;20290;-75
2022/06/22 12:05:07;;;;;;;5.88;5.28;;;;;;;;;;5051493;28;20613;-75
2022/06/22 12:07:49;;;;;;;6.43;5.72;;;;;;;;;;5052955;28;20261;-75
2022/06/22 12:10:25;;;;;;;8.30;6.07;;;;;;;;;;4969423;28;20402;-75
2022/06/22 12:13:01;;;;;;;8.70;6.55;;;;;;;;;;4966251;28;20342;-75
2022/06/22 12:15:40;;;;;;;10.38;5.97;;;;;;;;;;4969449;28;20629;-75
2022/06/22 12:18:13;;;;;;;9.23;6.13;;;;;;;;;;4972396;28;20293;-75
2022/06/22 12:20:49;;;;;;;7.88;6.78;;;;;;;;;;4971741;28;20226;-75
2022/06/22 12:23:24;;;;;;;10.13;6.95;;;;;;;;;;5032895;28;20208;-75
2022/06/22 12:26:08;;;;;;;8.40;6.85;;;;;;;;;;5033545;28;20266;-75
2022/06/22 12:28:45;;;;;;;6.78;6.13;;;;;;;;;;5040371;28;20359;-75
2022/06/22 12:31:14;;;;;;;5.72;5.22;;;;;;;;;;5033039;28;20208;-75
2022/06/22 12:33:44;;;;;;;6.72;4.78;;;;;;;;;;5037066;28;20286;-75
2022/06/22 12:36:14;;;;;;;5.25;4.38;;;;;;;;;;5037641;28;20288;-75
2022/06/22 12:38:43;;;;;;;4.97;4.40;;;;;;;;;;5039454;28;20322;-76
2022/06/22 12:41:18;;;;;;;4.85;3.90;;;;;;;;;;5041016;28;20755;-75
2022/06/22 12:44:03;;;;;;;5.75;4.32;;;;;;;;;;5039734;28;20279;-75
2022/06/22 12:46:37;;;;;;;5.93;4.90;;;;;;;;;;5038994;28;20295;-75
2022/06/22 12:49:21;;;;;;;5.00;4.50;;;;;;;;;;5116629;27;20307;-75
2022/06/22 12:54:36;;;;;;;4.60;4.18;;;;;;;;;;5117655;27;20206;-75
2022/06/22 12:57:04;;;;;;;6.05;4.35;;;;;;;;;;5116371;27;20204;-76
2022/06/22 12:59:33;;;;;;;4.95;4.38;;;;;;;;;;5112571;28;20661;-75
2022/06/22 13:02:04;;;;;;;5.40;4.22;;;;;;;;;;5115760;27;20229;-75
2022/06/22 13:04:33;;;;;;;5.05;4.20;;;;;;;;;;5125539;27;20196;-76
2022/06/22 13:07:03;;;;;;;7.03;4.00;;;;;;;;;;5118099;27;20280;-75
2022/06/22 13:09:31;;;;;;;4.80;4.10;;;;;;;;;;5128513;27;20220;-75
2022/06/22 13:12:00;;;;;;;6.35;4.53;;;;;;;;;;5117292;27;20236;-75
2022/06/22 13:14:35;;;;;;;4.80;3.92;;;;;;;;;;5113626;27;20272;-75
2022/06/22 13:17:10;;;;;;;5.25;4.65;;;;;;;;;;5128077;27;20758;-75
2022/06/22 13:19:42;;;;;;;5.28;4.38;;;;;;;;;;5131549;27;20275;-75
2022/06/22 13:22:13;;;;;;;6.18;5.00;;;;;;;;;;5128573;27;20273;-75
2022/06/22 13:24:45;;;;;;;9.80;5.25;;;;;;;;;;5118592;27;20271;-75
2022/06/22 13:27:26;;;;;;;6.97;5.13;;;;;;;;;;5123339;27;20196;-75
2022/06/22 13:29:57;;;;;;;6.57;5.35;;;;;;;;;;5123138;27;20304;-75
2022/06/22 13:32:28;;;;;;;8.77;5.60;;;;;;;;;;5121588;27;20284;-75
2022/06/22 13:34:58;;;;;;;8.02;5.50;;;;;;;;;;5116277;27;20194;-75
2022/06/22 13:37:28;;;;;;;8.35;5.72;;;;;;;;;;5111236;28;20201;-76
2022/06/22 13:40:04;;;;;;;8.57;5.50;;;;;;;;;;5120780;27;20213;-75
2022/06/22 13:42:57;;;;;;;6.25;4.90;;;;;;;;;;5115625;27;20225;-75
2022/06/22 13:45:38;;;;;;;5.75;4.72;;;;;;;;;;5116230;27;20312;-75
2022/06/22 13:48:15;;;;;;;6.57;4.70;;;;;;;;;;5108719;28;20271;-75
2022/06/22 13:51:05;;;;;;;6.07;5.35;;;;;;;;;;5129525;27;20679;-75
2022/06/22 13:53:37;;;;;;;6.22;5.25;;;;;;;;;;5100939;28;20201;-75
2022/06/22 13:56:08;;;;;;;5.97;5.38;;;;;;;;;;5113974;27;20673;-75
2022/06/22 13:58:49;;;;;;;8.07;5.38;;;;;;;;;;5114866;27;20282;-76
2022/06/22 14:01:19;;;;;;;7.55;5.00;;;;;;;;;;5124333;27;20236;-75
2022/06/22 14:03:51;;;;;;;5.75;5.10;;;;;;;;;;5102296;27;20284;-75
2022/06/22 14:06:20;;;;;;;6.15;4.75;;;;;;;;;;5114021;27;20768;-75
2022/06/22 14:08:54;;;;;;;5.30;4.80;;;;;;;;;;5122361;27;20304;-76
2022/06/22 14:11:27;;;;;;;6.88;4.88;;;;;;;;;;5120479;27;20276;-75
2022/06/22 14:13:57;;;;;;;6.88;4.53;;;;;;;;;;5121014;27;20648;-76
2022/06/22 14:16:28;;;;;;;4.90;4.00;;;;;;;;;;5132235;27;20241;-76
2022/06/22 14:18:59;;;;;;;4.50;3.45;;;;;;;;;;5113755;27;20223;-76
2022/06/22 14:21:31;;;;;;;4.07;3.63;;;;;;;;;;5118557;27;20273;-76
2022/06/22 14:23:59;;;;;;;4.55;4.15;;;;;;;;;;5118748;27;20201;-76
2022/06/22 14:26:44;;;;;;;4.20;3.80;;;;;;;;;;5120827;27;20308;-76
2022/06/22 14:29:19;;;;;;;4.20;3.80;;;;;;;;;;5115502;27;20307;-76
2022/06/22 14:31:54;;;;;;;8.48;4.15;;;;;;;;;;5118609;27;20305;-76
2022/06/22 14:34:29;;;;;;;4.32;3.72;;;;;;;;;;5114154;28;20280;-75
2022/06/22 14:36:59;;;;;;;4.82;3.58;;;;;;;;;;5122410;28;20216;-76
2022/06/22 14:39:31;;;;;;;6.38;3.75;;;;;;;;;;5113704;28;20276;-75
2022/06/22 14:41:59;;;;;;;4.22;3.83;;;;;;;;;;5118893;28;20211;-75
2022/06/22 14:44:35;;;;;;;4.32;3.75;;;;;;;;;;5118897;27;20314;-76
2022/06/22 14:47:13;;;;;;;4.35;3.95;;;;;;;;;;5118422;28;20197;-75
2022/06/22 14:49:43;;;;;;;5.70;3.95;;;;;;;;;;5124484;28;20266;-76
2022/06/22 14:52:15;;;;;;;4.47;4.05;;;;;;;;;;5116581;28;20229;-76
2022/06/22 14:54:46;;;;;;;5.15;3.92;;;;;;;;;;5123562;27;20221;-75
2022/06/22 14:57:17;;;;;;;4.32;3.92;;;;;;;;;;5121417;27;20210;-76
2022/06/22 14:59:52;;;;;;;6.05;4.00;;;;;;;;;;5130550;27;20291;-75
2022/06/22 15:02:22;;;;;;;6.03;3.72;;;;;;;;;;5120509;27;20227;-75
2022/06/22 15:04:56;;;;;;;4.80;3.88;;;;;;;;;;5122947;27;20236;-75
2022/06/22 15:07:28;;;;;;;6.20;4.20;;;;;;;;;;5134566;27;20277;-76
2022/06/22 15:09:57;;;;;;;8.50;4.88;;;;;;;;;;5133825;27;20303;-75
2022/06/22 15:15:20;;;;;;;5.57;4.07;;;;;;;;;;5135627;27;20200;-75
2022/06/22 15:17:51;;;;;;;8.10;5.00;;;;;;;;;;5133531;27;20283;-75
2022/06/22 15:20:22;;;;;;;5.88;4.97;;;;;;;;;;5135460;27;20243;-76
2022/06/22 15:22:53;;;;;;;7.38;5.25;;;;;;;;;;5132377;27;20309;-76
2022/06/22 15:25:23;;;;;;;5.65;5.13;;;;;;;;;;5134078;27;20743;-75
2022/06/22 15:27:56;;;;;;;9.95;6.43;;;;;;;;;;5134295;27;20281;-75
2022/06/22 15:30:25;;;;;;;6.90;4.03;;;;;;;;;;5130174;27;20602;-75
2022/06/22 15:33:00;;;;;;;12.88;3.40;;;;;;;;;;5133105;27;20658;-76
2022/06/22 15:35:35;;;;;;;7.13;2.78;;;;;;;;;;5133688;27;20646;-75
2022/06/22 15:38:03;;;;;;;6.13;3.15;;;;;;;;;;5135888;27;20220;-75